sensor_id;sensor_type;location;lat;lon;timestamp;pressure;altitude;pressure_sealevel;temperature;humidity
61805;BME280;47725;47.912;7.356;2022-09-28T00:03:28;97723.18;;;12.62;71.53
61805;BME280;47725;47.912;7.356;2022-09-28T00:07:28;97720.56;;;12.63;71.41
61805;BME280;47725;47.912;7.356;2022-09-28T00:11:28;97718.24;;;12.64;71.42
61805;BME280;47725;47.912;7.356;2022-09-28T00:15:28;97714.73;;;12.66;71.46
61805;BME280;47725;47.912;7.356;2022-09-28T00:19:28;97710.22;;;12.66;71.41
61805;BME280;47725;47.912;7.356;2022-09-28T00:23:28;97704.47;;;12.67;71.56
61805;BME280;47725;47.912;7.356;2022-09-28T00:27:28;97695.09;;;12.70;71.29
61805;BME280;47725;47.912;7.356;2022-09-28T00:31:29;97686.38;;;12.73;71.21
61805;BME280;47725;47.912;7.356;2022-09-28T00:35:28;97676.84;;;12.73;71.52
61805;BME280;47725;47.912;7.356;2022-09-28T00:39:28;97669.37;;;12.72;71.75
61805;BME280;47725;47.912;7.356;2022-09-28T00:43:28;97664.29;;;12.73;71.46
61805;BME280;47725;47.912;7.356;2022-09-28T00:47:38;97656.89;;;12.74;71.43
61805;BME280;47725;47.912;7.356;2022-09-28T00:51:28;97650.81;;;12.75;71.72
61805;BME280;47725;47.912;7.356;2022-09-28T00:55:38;97642.64;;;12.73;71.79
61805;BME280;47725;47.912;7.356;2022-09-28T00:59:29;97631.45;;;12.73;71.64
61805;BME280;47725;47.912;7.356;2022-09-28T01:03:28;97620.08;;;12.70;71.60
61805;BME280;47725;47.912;7.356;2022-09-28T01:07:28;97609.23;;;12.69;71.90
61805;BME280;47725;47.912;7.356;2022-09-28T01:11:31;97600.92;;;12.67;71.97
61805;BME280;47725;47.912;7.356;2022-09-28T01:15:28;97591.69;;;12.65;72.00
61805;BME280;47725;47.912;7.356;2022-09-28T01:23:36;97574.77;;;12.61;72.22
61805;BME280;47725;47.912;7.356;2022-09-28T01:27:30;97566.25;;;12.61;72.05
61805;BME280;47725;47.912;7.356;2022-09-28T01:31:29;97558.26;;;12.61;72.18
61805;BME280;47725;47.912;7.356;2022-09-28T01:35:30;97551.59;;;12.61;72.13
61805;BME280;47725;47.912;7.356;2022-09-28T01:39:35;97547.52;;;12.57;72.74
61805;BME280;47725;47.912;7.356;2022-09-28T01:43:29;97542.72;;;12.56;72.99
61805;BME280;47725;47.912;7.356;2022-09-28T01:47:28;97538.64;;;12.54;72.93
61805;BME280;47725;47.912;7.356;2022-09-28T01:51:40;97531.75;;;12.52;72.97
61805;BME280;47725;47.912;7.356;2022-09-28T01:55:36;97523.17;;;12.51;72.79
61805;BME280;47725;47.912;7.356;2022-09-28T01:59:28;97513.75;;;12.50;72.79
61805;BME280;47725;47.912;7.356;2022-09-28T02:03:30;97505.10;;;12.50;72.71
61805;BME280;47725;47.912;7.356;2022-09-28T02:07:30;97497.17;;;12.49;72.54
61805;BME280;47725;47.912;7.356;2022-09-28T02:11:28;97490.70;;;12.49;72.55
61805;BME280;47725;47.912;7.356;2022-09-28T02:15:29;97485.14;;;12.50;72.20
61805;BME280;47725;47.912;7.356;2022-09-28T02:19:28;97481.29;;;12.51;72.27
61805;BME280;47725;47.912;7.356;2022-09-28T02:23:28;97479.05;;;12.50;72.38
61805;BME280;47725;47.912;7.356;2022-09-28T02:31:28;97471.51;;;12.48;72.93
61805;BME280;47725;47.912;7.356;2022-09-28T02:35:28;97462.59;;;12.44;73.37
61805;BME280;47725;47.912;7.356;2022-09-28T02:39:28;97455.33;;;12.42;73.32
61805;BME280;47725;47.912;7.356;2022-09-28T02:43:32;97446.48;;;12.41;73.15
61805;BME280;47725;47.912;7.356;2022-09-28T02:47:42;97438.09;;;12.40;73.27
61805;BME280;47725;47.912;7.356;2022-09-28T02:55:42;97427.29;;;12.40;72.99
61805;BME280;47725;47.912;7.356;2022-09-28T03:03:37;97420.23;;;12.42;72.64
61805;BME280;47725;47.912;7.356;2022-09-28T03:07:33;97420.12;;;12.43;72.63
61805;BME280;47725;47.912;7.356;2022-09-28T03:11:36;97420.00;;;12.44;72.60
61805;BME280;47725;47.912;7.356;2022-09-28T03:15:29;97420.29;;;12.46;72.55
61805;BME280;47725;47.912;7.356;2022-09-28T03:19:32;97421.94;;;12.48;72.52
61805;BME280;47725;47.912;7.356;2022-09-28T03:23:28;97422.58;;;12.51;72.52
61805;BME280;47725;47.912;7.356;2022-09-28T03:27:28;97421.95;;;12.53;72.54
61805;BME280;47725;47.912;7.356;2022-09-28T03:31:28;97420.00;;;12.55;72.60
61805;BME280;47725;47.912;7.356;2022-09-28T03:35:28;97416.05;;;12.57;72.60
61805;BME280;47725;47.912;7.356;2022-09-28T03:39:28;97411.64;;;12.58;72.76
61805;BME280;47725;47.912;7.356;2022-09-28T03:43:29;97406.59;;;12.58;72.96
61805;BME280;47725;47.912;7.356;2022-09-28T03:47:28;97399.62;;;12.59;72.88
61805;BME280;47725;47.912;7.356;2022-09-28T03:51:28;97391.21;;;12.62;72.68
61805;BME280;47725;47.912;7.356;2022-09-28T03:55:28;97383.39;;;12.64;72.70
61805;BME280;47725;47.912;7.356;2022-09-28T03:59:28;97376.45;;;12.65;72.79
61805;BME280;47725;47.912;7.356;2022-09-28T04:03:28;97370.68;;;12.66;72.75
61805;BME280;47725;47.912;7.356;2022-09-28T04:07:28;97367.80;;;12.66;72.64
61805;BME280;47725;47.912;7.356;2022-09-28T04:11:28;97365.88;;;12.67;72.76
61805;BME280;47725;47.912;7.356;2022-09-28T04:15:28;97365.12;;;12.68;72.71
61805;BME280;47725;47.912;7.356;2022-09-28T04:19:28;97365.02;;;12.69;72.85
61805;BME280;47725;47.912;7.356;2022-09-28T04:23:28;97366.83;;;12.70;72.66
61805;BME280;47725;47.912;7.356;2022-09-28T04:27:28;97369.83;;;12.71;72.66
61805;BME280;47725;47.912;7.356;2022-09-28T04:31:28;97372.69;;;12.73;72.53
61805;BME280;47725;47.912;7.356;2022-09-28T04:35:28;97374.31;;;12.76;72.47
61805;BME280;47725;47.912;7.356;2022-09-28T04:39:28;97375.18;;;12.80;72.33
61805;BME280;47725;47.912;7.356;2022-09-28T04:43:28;97376.90;;;12.84;72.22
61805;BME280;47725;47.912;7.356;2022-09-28T04:47:28;97378.75;;;12.86;72.18
61805;BME280;47725;47.912;7.356;2022-09-28T04:51:31;97380.93;;;12.89;72.17
61805;BME280;47725;47.912;7.356;2022-09-28T04:55:28;97381.67;;;12.91;72.12
61805;BME280;47725;47.912;7.356;2022-09-28T04:59:28;97383.12;;;12.93;72.21
61805;BME280;47725;47.912;7.356;2022-09-28T05:03:28;97385.83;;;12.95;72.06
61805;BME280;47725;47.912;7.356;2022-09-28T05:07:28;97389.87;;;12.97;72.05
61805;BME280;47725;47.912;7.356;2022-09-28T05:11:28;97394.67;;;13.00;71.99
61805;BME280;47725;47.912;7.356;2022-09-28T05:15:28;97398.52;;;13.04;71.80
61805;BME280;47725;47.912;7.356;2022-09-28T05:19:28;97401.11;;;13.07;71.89
61805;BME280;47725;47.912;7.356;2022-09-28T05:23:28;97406.39;;;13.10;71.80
61805;BME280;47725;47.912;7.356;2022-09-28T05:27:28;97410.06;;;13.12;71.87
61805;BME280;47725;47.912;7.356;2022-09-28T05:31:28;97413.05;;;13.14;71.89
61805;BME280;47725;47.912;7.356;2022-09-28T05:35:28;97414.95;;;13.15;71.82
61805;BME280;47725;47.912;7.356;2022-09-28T05:39:28;97415.77;;;13.15;72.02
61805;BME280;47725;47.912;7.356;2022-09-28T05:43:28;97415.69;;;13.15;72.02
61805;BME280;47725;47.912;7.356;2022-09-28T05:47:28;97416.46;;;13.17;71.96
61805;BME280;47725;47.912;7.356;2022-09-28T05:51:28;97418.84;;;13.19;71.94
61805;BME280;47725;47.912;7.356;2022-09-28T05:55:28;97421.44;;;13.22;71.82
61805;BME280;47725;47.912;7.356;2022-09-28T05:59:28;97423.05;;;13.26;71.83
61805;BME280;47725;47.912;7.356;2022-09-28T06:03:28;97424.84;;;13.29;71.72
61805;BME280;47725;47.912;7.356;2022-09-28T06:07:28;97427.11;;;13.32;71.76
61805;BME280;47725;47.912;7.356;2022-09-28T06:11:29;97430.03;;;13.36;71.75
61805;BME280;47725;47.912;7.356;2022-09-28T06:15:29;97433.86;;;13.39;71.70
61805;BME280;47725;47.912;7.356;2022-09-28T06:19:28;97439.04;;;13.41;71.84
61805;BME280;47725;47.912;7.356;2022-09-28T06:23:28;97443.88;;;13.44;71.90
61805;BME280;47725;47.912;7.356;2022-09-28T06:27:28;97451.59;;;13.46;71.92
61805;BME280;47725;47.912;7.356;2022-09-28T06:31:28;97460.41;;;13.48;71.75
61805;BME280;47725;47.912;7.356;2022-09-28T06:35:28;97469.61;;;13.51;71.52
61805;BME280;47725;47.912;7.356;2022-09-28T06:39:28;97479.00;;;13.53;71.65
61805;BME280;47725;47.912;7.356;2022-09-28T06:43:28;97489.25;;;13.56;71.66
61805;BME280;47725;47.912;7.356;2022-09-28T06:47:28;97499.03;;;13.59;71.64
61805;BME280;47725;47.912;7.356;2022-09-28T06:51:28;97504.80;;;13.62;71.58
61805;BME280;47725;47.912;7.356;2022-09-28T06:55:28;97507.42;;;13.64;71.56
61805;BME280;47725;47.912;7.356;2022-09-28T06:59:28;97509.92;;;13.66;71.51
61805;BME280;47725;47.912;7.356;2022-09-28T07:03:28;97513.44;;;13.68;71.52
61805;BME280;47725;47.912;7.356;2022-09-28T07:07:28;97515.16;;;13.70;71.51
61805;BME280;47725;47.912;7.356;2022-09-28T07:11:28;97519.36;;;13.72;71.48
61805;BME280;47725;47.912;7.356;2022-09-28T07:15:28;97524.58;;;13.74;71.50
61805;BME280;47725;47.912;7.356;2022-09-28T07:19:28;97529.55;;;13.76;71.45
61805;BME280;47725;47.912;7.356;2022-09-28T07:23:28;97533.95;;;13.77;71.41
61805;BME280;47725;47.912;7.356;2022-09-28T07:27:28;97541.64;;;13.77;71.33
61805;BME280;47725;47.912;7.356;2022-09-28T07:31:28;97548.27;;;13.78;71.34
61805;BME280;47725;47.912;7.356;2022-09-28T07:35:28;97554.30;;;13.80;71.35
61805;BME280;47725;47.912;7.356;2022-09-28T07:39:28;97559.41;;;13.81;71.43
61805;BME280;47725;47.912;7.356;2022-09-28T07:43:28;97563.97;;;13.82;71.47
61805;BME280;47725;47.912;7.356;2022-09-28T07:47:28;97569.23;;;13.83;71.55
61805;BME280;47725;47.912;7.356;2022-09-28T07:51:28;97575.97;;;13.83;71.68
61805;BME280;47725;47.912;7.356;2022-09-28T07:55:28;97584.06;;;13.85;71.50
61805;BME280;47725;47.912;7.356;2022-09-28T07:59:28;97590.19;;;13.88;71.32
61805;BME280;47725;47.912;7.356;2022-09-28T08:03:28;97593.93;;;13.89;71.50
61805;BME280;47725;47.912;7.356;2022-09-28T08:07:28;97598.65;;;13.88;71.69
61805;BME280;47725;47.912;7.356;2022-09-28T08:11:28;97605.11;;;13.87;71.58
61805;BME280;47725;47.912;7.356;2022-09-28T08:15:28;97610.67;;;13.85;71.36
61805;BME280;47725;47.912;7.356;2022-09-28T08:19:28;97616.21;;;13.82;71.66
61805;BME280;47725;47.912;7.356;2022-09-28T08:23:28;97620.49;;;13.78;71.90
61805;BME280;47725;47.912;7.356;2022-09-28T08:27:28;97620.92;;;13.75;72.10
61805;BME280;47725;47.912;7.356;2022-09-28T08:31:28;97621.45;;;13.74;72.31
61805;BME280;47725;47.912;7.356;2022-09-28T08:35:28;97623.74;;;13.74;72.13
61805;BME280;47725;47.912;7.356;2022-09-28T08:39:28;97626.20;;;13.78;71.91
61805;BME280;47725;47.912;7.356;2022-09-28T08:47:29;97632.06;;;13.82;72.19
61805;BME280;47725;47.912;7.356;2022-09-28T08:51:37;97635.71;;;13.86;71.65
61805;BME280;47725;47.912;7.356;2022-09-28T08:55:35;97638.62;;;13.93;71.14
61805;BME280;47725;47.912;7.356;2022-09-28T08:59:30;97640.92;;;13.98;70.95
61805;BME280;47725;47.912;7.356;2022-09-28T09:03:29;97642.50;;;14.03;71.10
61805;BME280;47725;47.912;7.356;2022-09-28T09:11:34;97647.35;;;14.16;71.10
61805;BME280;47725;47.912;7.356;2022-09-28T09:15:32;97649.22;;;14.19;71.40
61805;BME280;47725;47.912;7.356;2022-09-28T09:23:32;97657.62;;;14.24;71.96
61805;BME280;47725;47.912;7.356;2022-09-28T09:27:33;97662.34;;;14.25;71.69
61805;BME280;47725;47.912;7.356;2022-09-28T09:35:30;97667.97;;;14.35;71.15
61805;BME280;47725;47.912;7.356;2022-09-28T09:39:32;97669.00;;;14.39;70.89
61805;BME280;47725;47.912;7.356;2022-09-28T09:47:29;97670.22;;;14.45;70.83
61805;BME280;47725;47.912;7.356;2022-09-28T09:55:43;97672.80;;;14.50;70.57
61805;BME280;47725;47.912;7.356;2022-09-28T09:59:31;97672.45;;;14.53;70.73
61805;BME280;47725;47.912;7.356;2022-09-28T10:03:28;97671.53;;;14.56;70.53
61805;BME280;47725;47.912;7.356;2022-09-28T10:07:34;97671.20;;;14.60;70.46
61805;BME280;47725;47.912;7.356;2022-09-28T10:11:30;97671.87;;;14.63;70.39
61805;BME280;47725;47.912;7.356;2022-09-28T10:15:28;97672.88;;;14.66;70.23
61805;BME280;47725;47.912;7.356;2022-09-28T10:19:29;97672.30;;;14.70;70.23
61805;BME280;47725;47.912;7.356;2022-09-28T10:23:28;97671.78;;;14.73;70.21
61805;BME280;47725;47.912;7.356;2022-09-28T10:27:32;97670.78;;;14.76;70.23
61805;BME280;47725;47.912;7.356;2022-09-28T10:31:37;97669.30;;;14.79;70.21
61805;BME280;47725;47.912;7.356;2022-09-28T10:35:28;97668.07;;;14.81;70.38
61805;BME280;47725;47.912;7.356;2022-09-28T10:39:31;97668.08;;;14.79;70.80
61805;BME280;47725;47.912;7.356;2022-09-28T10:43:28;97667.85;;;14.74;71.23
61805;BME280;47725;47.912;7.356;2022-09-28T10:47:28;97668.30;;;14.68;71.19
61805;BME280;47725;47.912;7.356;2022-09-28T10:51:40;97667.42;;;14.62;71.19
61805;BME280;47725;47.912;7.356;2022-09-28T10:55:31;97666.03;;;14.55;71.41
61805;BME280;47725;47.912;7.356;2022-09-28T11:03:27;97667.15;;;14.48;71.25
61805;BME280;47725;47.912;7.356;2022-09-28T11:07:28;97667.64;;;14.46;71.38
61805;BME280;47725;47.912;7.356;2022-09-28T11:11:27;97667.33;;;14.45;71.03
61805;BME280;47725;47.912;7.356;2022-09-28T11:15:28;97664.90;;;14.46;70.11
61805;BME280;47725;47.912;7.356;2022-09-28T11:19:27;97664.07;;;14.46;70.28
61805;BME280;47725;47.912;7.356;2022-09-28T11:23:28;97663.75;;;14.44;70.19
61805;BME280;47725;47.912;7.356;2022-09-28T11:27:27;97664.15;;;14.42;70.17
61805;BME280;47725;47.912;7.356;2022-09-28T11:31:27;97663.55;;;14.38;70.00
61805;BME280;47725;47.912;7.356;2022-09-28T11:39:34;97660.65;;;14.26;70.82
61805;BME280;47725;47.912;7.356;2022-09-28T11:47:31;97656.36;;;14.15;70.78
61805;BME280;47725;47.912;7.356;2022-09-28T11:51:30;97653.78;;;14.12;70.86
61805;BME280;47725;47.912;7.356;2022-09-28T11:55:31;97653.20;;;14.12;70.72
61805;BME280;47725;47.912;7.356;2022-09-28T11:59:31;97651.82;;;14.12;70.40
61805;BME280;47725;47.912;7.356;2022-09-28T12:03:29;97650.90;;;14.11;70.28
61805;BME280;47725;47.912;7.356;2022-09-28T12:07:29;97650.39;;;14.11;70.74
61805;BME280;47725;47.912;7.356;2022-09-28T12:11:31;97648.78;;;14.11;70.88
61805;BME280;47725;47.912;7.356;2022-09-28T12:15:29;97646.34;;;14.10;70.58
61805;BME280;47725;47.912;7.356;2022-09-28T12:19:37;97646.56;;;14.09;70.30
61805;BME280;47725;47.912;7.356;2022-09-28T12:23:29;97647.39;;;14.06;70.77
61805;BME280;47725;47.912;7.356;2022-09-28T12:27:48;97648.96;;;14.05;70.20
61805;BME280;47725;47.912;7.356;2022-09-28T12:31:29;97651.00;;;14.02;70.55
61805;BME280;47725;47.912;7.356;2022-09-28T12:39:37;97655.67;;;13.99;70.53
61805;BME280;47725;47.912;7.356;2022-09-28T12:55:37;97657.04;;;14.07;70.42
61805;BME280;47725;47.912;7.356;2022-09-28T12:59:31;97657.12;;;14.07;70.51
61805;BME280;47725;47.912;7.356;2022-09-28T13:03:46;97654.83;;;14.05;70.83
61805;BME280;47725;47.912;7.356;2022-09-28T13:19:37;97644.45;;;14.06;70.66
61805;BME280;47725;47.912;7.356;2022-09-28T13:23:28;97641.77;;;14.10;70.46
61805;BME280;47725;47.912;7.356;2022-09-28T13:27:28;97638.96;;;14.15;70.14
61805;BME280;47725;47.912;7.356;2022-09-28T13:31:27;97638.13;;;14.19;69.69
61805;BME280;47725;47.912;7.356;2022-09-28T13:35:27;97638.64;;;14.20;69.24
61805;BME280;47725;47.912;7.356;2022-09-28T13:39:34;97639.37;;;14.18;69.50
61805;BME280;47725;47.912;7.356;2022-09-28T13:43:30;97641.14;;;14.19;69.58
61805;BME280;47725;47.912;7.356;2022-09-28T13:51:46;97642.05;;;14.24;69.23
61805;BME280;47725;47.912;7.356;2022-09-28T13:55:30;97643.80;;;14.28;69.24
61805;BME280;47725;47.912;7.356;2022-09-28T13:59:27;97645.51;;;14.32;68.75
61805;BME280;47725;47.912;7.356;2022-09-28T14:03:40;97648.86;;;14.35;68.53
61805;BME280;47725;47.912;7.356;2022-09-28T14:11:39;97656.26;;;14.38;68.15
61805;BME280;47725;47.912;7.356;2022-09-28T14:19:28;97662.30;;;14.38;68.11
61805;BME280;47725;47.912;7.356;2022-09-28T14:23:33;97664.50;;;14.37;68.41
61805;BME280;47725;47.912;7.356;2022-09-28T14:27:38;97666.75;;;14.37;68.66
61805;BME280;47725;47.912;7.356;2022-09-28T14:31:27;97668.87;;;14.37;68.57
61805;BME280;47725;47.912;7.356;2022-09-28T14:35:29;97670.90;;;14.37;68.61
61805;BME280;47725;47.912;7.356;2022-09-28T14:39:28;97672.52;;;14.36;68.59
61805;BME280;47725;47.912;7.356;2022-09-28T14:43:37;97673.25;;;14.36;68.22
61805;BME280;47725;47.912;7.356;2022-09-28T14:47:33;97673.99;;;14.37;68.54
61805;BME280;47725;47.912;7.356;2022-09-28T14:55:31;97673.66;;;14.45;68.28
61805;BME280;47725;47.912;7.356;2022-09-28T14:59:28;97673.15;;;14.48;68.36
61805;BME280;47725;47.912;7.356;2022-09-28T15:03:28;97671.62;;;14.51;68.70
61805;BME280;47725;47.912;7.356;2022-09-28T15:07:28;97669.89;;;14.54;68.66
61805;BME280;47725;47.912;7.356;2022-09-28T15:11:27;97668.16;;;14.57;68.78
61805;BME280;47725;47.912;7.356;2022-09-28T15:15:36;97667.42;;;14.59;68.16
61805;BME280;47725;47.912;7.356;2022-09-28T15:23:40;97669.08;;;14.64;67.95
61805;BME280;47725;47.912;7.356;2022-09-28T15:27:37;97670.17;;;14.66;68.13
61805;BME280;47725;47.912;7.356;2022-09-28T15:31:27;97670.43;;;14.69;68.27
61805;BME280;47725;47.912;7.356;2022-09-28T15:35:27;97672.11;;;14.71;68.37
61805;BME280;47725;47.912;7.356;2022-09-28T15:39:30;97673.67;;;14.73;68.36
61805;BME280;47725;47.912;7.356;2022-09-28T15:43:28;97673.82;;;14.74;68.11
61805;BME280;47725;47.912;7.356;2022-09-28T15:47:27;97675.44;;;14.76;67.80
61805;BME280;47725;47.912;7.356;2022-09-28T15:51:27;97676.92;;;14.76;68.02
61805;BME280;47725;47.912;7.356;2022-09-28T15:55:28;97677.99;;;14.77;68.05
61805;BME280;47725;47.912;7.356;2022-09-28T15:59:33;97679.30;;;14.77;67.96
61805;BME280;47725;47.912;7.356;2022-09-28T16:03:27;97681.09;;;14.76;68.02
61805;BME280;47725;47.912;7.356;2022-09-28T16:11:28;97685.85;;;14.75;68.15
61805;BME280;47725;47.912;7.356;2022-09-28T16:15:28;97688.28;;;14.74;68.22
61805;BME280;47725;47.912;7.356;2022-09-28T16:19:27;97689.83;;;14.74;68.29
61805;BME280;47725;47.912;7.356;2022-09-28T16:23:31;97691.16;;;14.73;68.24
61805;BME280;47725;47.912;7.356;2022-09-28T16:31:28;97695.51;;;14.72;68.01
61805;BME280;47725;47.912;7.356;2022-09-28T16:35:31;97698.46;;;14.72;68.11
61805;BME280;47725;47.912;7.356;2022-09-28T16:39:27;97701.48;;;14.70;68.31
61805;BME280;47725;47.912;7.356;2022-09-28T16:43:28;97702.95;;;14.68;68.15
61805;BME280;47725;47.912;7.356;2022-09-28T16:47:27;97702.82;;;14.66;67.96
61805;BME280;47725;47.912;7.356;2022-09-28T16:51:27;97703.22;;;14.64;68.20
61805;BME280;47725;47.912;7.356;2022-09-28T16:55:27;97703.30;;;14.62;68.38
61805;BME280;47725;47.912;7.356;2022-09-28T16:59:27;97705.27;;;14.60;68.31
61805;BME280;47725;47.912;7.356;2022-09-28T17:03:27;97708.20;;;14.57;68.26
61805;BME280;47725;47.912;7.356;2022-09-28T17:07:27;97711.16;;;14.54;67.96
61805;BME280;47725;47.912;7.356;2022-09-28T17:11:27;97714.45;;;14.50;68.03
61805;BME280;47725;47.912;7.356;2022-09-28T17:15:27;97718.79;;;14.46;68.16
61805;BME280;47725;47.912;7.356;2022-09-28T17:19:27;97722.41;;;14.42;68.47
61805;BME280;47725;47.912;7.356;2022-09-28T17:23:27;97725.47;;;14.38;68.29
61805;BME280;47725;47.912;7.356;2022-09-28T17:27:27;97727.26;;;14.33;68.41
61805;BME280;47725;47.912;7.356;2022-09-28T17:31:27;97731.23;;;14.29;68.55
61805;BME280;47725;47.912;7.356;2022-09-28T17:35:27;97735.38;;;14.24;68.76
61805;BME280;47725;47.912;7.356;2022-09-28T17:39:27;97740.55;;;14.18;68.84
61805;BME280;47725;47.912;7.356;2022-09-28T17:43:27;97744.39;;;14.12;68.82
61805;BME280;47725;47.912;7.356;2022-09-28T17:47:27;97748.72;;;14.08;68.72
61805;BME280;47725;47.912;7.356;2022-09-28T17:51:27;97751.26;;;14.03;68.93
61805;BME280;47725;47.912;7.356;2022-09-28T17:55:28;97753.99;;;13.99;68.99
61805;BME280;47725;47.912;7.356;2022-09-28T17:59:27;97757.58;;;13.96;68.87
61805;BME280;47725;47.912;7.356;2022-09-28T18:03:27;97761.75;;;13.93;68.68
61805;BME280;47725;47.912;7.356;2022-09-28T18:07:27;97767.30;;;13.90;68.66
61805;BME280;47725;47.912;7.356;2022-09-28T18:11:27;97772.85;;;13.88;68.14
61805;BME280;47725;47.912;7.356;2022-09-28T18:15:27;97776.84;;;13.88;68.30
61805;BME280;47725;47.912;7.356;2022-09-28T18:19:27;97780.03;;;13.90;68.19
61805;BME280;47725;47.912;7.356;2022-09-28T18:23:27;97782.98;;;13.91;68.20
61805;BME280;47725;47.912;7.356;2022-09-28T18:27:27;97785.91;;;13.93;68.15
61805;BME280;47725;47.912;7.356;2022-09-28T18:31:27;97789.76;;;13.93;68.19
61805;BME280;47725;47.912;7.356;2022-09-28T18:35:27;97793.28;;;13.94;68.26
61805;BME280;47725;47.912;7.356;2022-09-28T18:39:27;97796.53;;;13.93;68.28
61805;BME280;47725;47.912;7.356;2022-09-28T18:43:27;97801.33;;;13.92;68.29
61805;BME280;47725;47.912;7.356;2022-09-28T18:47:27;97805.03;;;13.92;68.23
61805;BME280;47725;47.912;7.356;2022-09-28T18:51:27;97807.50;;;13.91;68.39
61805;BME280;47725;47.912;7.356;2022-09-28T18:55:27;97810.08;;;13.90;68.32
61805;BME280;47725;47.912;7.356;2022-09-28T18:59:27;97813.03;;;13.89;68.37
61805;BME280;47725;47.912;7.356;2022-09-28T19:03:27;97815.62;;;13.88;68.30
61805;BME280;47725;47.912;7.356;2022-09-28T19:07:27;97816.72;;;13.86;68.37
61805;BME280;47725;47.912;7.356;2022-09-28T19:11:27;97818.81;;;13.84;68.39
61805;BME280;47725;47.912;7.356;2022-09-28T19:15:27;97820.28;;;13.81;68.46
61805;BME280;47725;47.912;7.356;2022-09-28T19:19:27;97819.81;;;13.77;68.37
61805;BME280;47725;47.912;7.356;2022-09-28T19:23:27;97820.59;;;13.73;68.53
61805;BME280;47725;47.912;7.356;2022-09-28T19:27:27;97822.24;;;13.70;68.69
61805;BME280;47725;47.912;7.356;2022-09-28T19:31:27;97824.28;;;13.67;68.72
61805;BME280;47725;47.912;7.356;2022-09-28T19:35:27;97827.20;;;13.63;68.76
61805;BME280;47725;47.912;7.356;2022-09-28T19:39:27;97829.60;;;13.61;68.77
61805;BME280;47725;47.912;7.356;2022-09-28T19:43:27;97831.72;;;13.59;68.74
61805;BME280;47725;47.912;7.356;2022-09-28T19:47:27;97833.08;;;13.57;68.89
61805;BME280;47725;47.912;7.356;2022-09-28T19:51:27;97835.05;;;13.56;68.89
61805;BME280;47725;47.912;7.356;2022-09-28T19:55:27;97836.77;;;13.55;68.94
61805;BME280;47725;47.912;7.356;2022-09-28T19:59:27;97836.50;;;13.56;68.98
61805;BME280;47725;47.912;7.356;2022-09-28T20:03:27;97835.96;;;13.56;68.84
61805;BME280;47725;47.912;7.356;2022-09-28T20:07:27;97836.99;;;13.57;68.97
61805;BME280;47725;47.912;7.356;2022-09-28T20:11:27;97837.89;;;13.57;68.94
61805;BME280;47725;47.912;7.356;2022-09-28T20:15:27;97838.14;;;13.57;69.02
61805;BME280;47725;47.912;7.356;2022-09-28T20:19:27;97838.05;;;13.57;68.98
61805;BME280;47725;47.912;7.356;2022-09-28T20:23:27;97837.34;;;13.57;68.98
61805;BME280;47725;47.912;7.356;2022-09-28T20:27:27;97836.33;;;13.56;68.99
61805;BME280;47725;47.912;7.356;2022-09-28T20:31:27;97836.02;;;13.54;69.01
61805;BME280;47725;47.912;7.356;2022-09-28T20:35:27;97835.46;;;13.53;68.93
61805;BME280;47725;47.912;7.356;2022-09-28T20:39:27;97834.39;;;13.52;68.87
61805;BME280;47725;47.912;7.356;2022-09-28T20:43:27;97833.26;;;13.50;68.87
61805;BME280;47725;47.912;7.356;2022-09-28T20:47:27;97833.23;;;13.49;68.95
61805;BME280;47725;47.912;7.356;2022-09-28T20:51:27;97832.98;;;13.48;68.98
61805;BME280;47725;47.912;7.356;2022-09-28T20:55:27;97833.23;;;13.47;69.02
61805;BME280;47725;47.912;7.356;2022-09-28T20:59:27;97831.76;;;13.45;69.12
61805;BME280;47725;47.912;7.356;2022-09-28T21:03:27;97830.30;;;13.44;69.17
61805;BME280;47725;47.912;7.356;2022-09-28T21:07:27;97829.30;;;13.43;69.05
61805;BME280;47725;47.912;7.356;2022-09-28T21:11:27;97828.25;;;13.44;68.90
61805;BME280;47725;47.912;7.356;2022-09-28T21:15:27;97827.69;;;13.44;69.02
61805;BME280;47725;47.912;7.356;2022-09-28T21:19:27;97825.48;;;13.44;69.14
61805;BME280;47725;47.912;7.356;2022-09-28T21:23:27;97822.55;;;13.44;69.28
61805;BME280;47725;47.912;7.356;2022-09-28T21:27:27;97819.44;;;13.44;69.56
61805;BME280;47725;47.912;7.356;2022-09-28T21:31:45;97815.87;;;13.44;69.49
61805;BME280;47725;47.912;7.356;2022-09-28T21:35:27;97813.51;;;13.44;69.51
61805;BME280;47725;47.912;7.356;2022-09-28T21:39:27;97812.67;;;13.44;69.52
61805;BME280;47725;47.912;7.356;2022-09-28T21:43:27;97812.27;;;13.42;69.67
61805;BME280;47725;47.912;7.356;2022-09-28T21:47:27;97812.73;;;13.37;70.30
61805;BME280;47725;47.912;7.356;2022-09-28T21:51:27;97812.19;;;13.31;70.52
61805;BME280;47725;47.912;7.356;2022-09-28T21:55:27;97810.58;;;13.26;70.63
61805;BME280;47725;47.912;7.356;2022-09-28T21:59:27;97809.00;;;13.22;70.66
61805;BME280;47725;47.912;7.356;2022-09-28T22:03:27;97807.45;;;13.19;70.59
61805;BME280;47725;47.912;7.356;2022-09-28T22:07:27;97806.00;;;13.15;70.69
61805;BME280;47725;47.912;7.356;2022-09-28T22:11:27;97805.50;;;13.11;70.89
61805;BME280;47725;47.912;7.356;2022-09-28T22:15:27;97805.45;;;13.06;70.90
61805;BME280;47725;47.912;7.356;2022-09-28T22:19:27;97804.32;;;13.03;71.03
61805;BME280;47725;47.912;7.356;2022-09-28T22:23:27;97802.58;;;13.00;70.89
61805;BME280;47725;47.912;7.356;2022-09-28T22:27:27;97802.92;;;12.96;70.97
61805;BME280;47725;47.912;7.356;2022-09-28T22:31:28;97804.21;;;12.93;70.97
61805;BME280;47725;47.912;7.356;2022-09-28T22:35:26;97806.79;;;12.90;70.98
61805;BME280;47725;47.912;7.356;2022-09-28T22:39:27;97807.25;;;12.85;71.01
61805;BME280;47725;47.912;7.356;2022-09-28T22:43:26;97807.17;;;12.81;71.14
61805;BME280;47725;47.912;7.356;2022-09-28T22:47:26;97806.91;;;12.75;71.12
61805;BME280;47725;47.912;7.356;2022-09-28T22:51:27;97805.02;;;12.67;71.48
61805;BME280;47725;47.912;7.356;2022-09-28T22:55:27;97802.95;;;12.61;71.45
61805;BME280;47725;47.912;7.356;2022-09-28T22:59:26;97801.29;;;12.55;71.62